createdAt,value
2023-04-13T00:01:23.274Z,6.40
2023-04-13T00:03:50.849Z,6.40
2023-04-13T00:06:17.777Z,6.40
2023-04-13T00:08:45.097Z,6.40
2023-04-13T00:11:12.639Z,6.30
2023-04-13T00:16:11.017Z,6.20
2023-04-13T00:18:37.999Z,6.30
2023-04-13T00:21:05.053Z,6.30
2023-04-13T00:23:32.141Z,6.30
2023-04-13T00:26:01.502Z,6.40
2023-04-13T00:28:29.701Z,6.30
2023-04-13T00:30:56.705Z,6.30
2023-04-13T00:33:23.844Z,6.30
2023-04-13T00:35:50.774Z,6.30
2023-04-13T00:38:18.163Z,6.20
2023-04-13T00:40:45.004Z,6.20
2023-04-13T00:43:11.761Z,6.10
2023-04-13T00:45:39.559Z,6.10
2023-04-13T00:48:10.566Z,6.10
2023-04-13T00:50:37.888Z,6.00
2023-04-13T00:53:09.693Z,6.10
2023-04-13T00:55:42.098Z,6.10
2023-04-13T00:58:09.329Z,6.10
2023-04-13T01:00:39.364Z,6.10
2023-04-13T01:03:06.448Z,6.00
2023-04-13T01:05:50.346Z,6.00
2023-04-13T01:08:22.202Z,6.10
2023-04-13T01:10:54.534Z,6.10
2023-04-13T01:13:30.341Z,6.10
2023-04-13T01:16:21.223Z,6.00
2023-04-13T01:18:52.429Z,6.00
2023-04-13T01:21:24.329Z,5.90
2023-04-13T01:24:17.594Z,5.90
2023-04-13T01:26:58.449Z,6.00
2023-04-13T01:29:27.166Z,6.00
2023-04-13T01:31:54.383Z,6.00
2023-04-13T01:34:23.255Z,6.00
2023-04-13T01:36:50.881Z,6.00
2023-04-13T01:39:21.724Z,6.00
2023-04-13T01:41:48.393Z,6.10
2023-04-13T01:44:15.247Z,6.00
2023-04-13T01:46:46.444Z,6.00
2023-04-13T01:49:19.436Z,6.10
2023-04-13T01:51:48.227Z,6.10
2023-04-13T01:54:25.773Z,6.10
2023-04-13T01:56:54.072Z,6.10
2023-04-13T01:59:22.548Z,6.20
2023-04-13T02:04:16.578Z,6.20
2023-04-13T02:06:43.414Z,6.30
2023-04-13T02:09:11.013Z,6.30
2023-04-13T02:11:38.367Z,6.30
2023-04-13T02:14:05.132Z,6.40
2023-04-13T02:16:32.219Z,6.50
2023-04-13T02:21:26.953Z,6.50
2023-04-13T02:23:53.973Z,6.50
2023-04-13T02:26:20.861Z,6.50
2023-04-13T02:28:49.434Z,6.50
2023-04-13T02:31:16.732Z,6.50
2023-04-13T02:33:44.762Z,6.50
2023-04-13T02:36:12.213Z,6.50
2023-04-13T02:41:06.647Z,6.60
2023-04-13T02:43:34.256Z,6.70
2023-04-13T02:46:01.040Z,6.70
2023-04-13T02:48:28.159Z,6.60
2023-04-13T02:50:55.077Z,6.60
2023-04-13T02:53:22.186Z,6.50
2023-04-13T02:55:53.580Z,6.50
2023-04-13T02:58:21.332Z,6.40
2023-04-13T03:00:48.809Z,6.40
2023-04-13T03:03:17.092Z,6.40
2023-04-13T03:08:11.342Z,6.40
2023-04-13T03:10:38.014Z,6.30
2023-04-13T03:13:04.757Z,6.30
2023-04-13T03:15:31.646Z,6.30
2023-04-13T03:18:00.122Z,6.40
2023-04-13T03:20:29.129Z,6.40
2023-04-13T03:22:57.140Z,6.40
2023-04-13T03:27:51.710Z,6.40
2023-04-13T03:30:18.784Z,6.40
2023-04-13T03:32:45.639Z,6.40
2023-04-13T03:35:12.428Z,6.40
2023-04-13T03:40:11.044Z,6.50
2023-04-13T03:42:38.539Z,6.50
2023-04-13T03:45:07.031Z,6.50
2023-04-13T03:47:33.995Z,6.60
2023-04-13T03:50:00.787Z,6.60
2023-04-13T03:52:27.713Z,6.60
2023-04-13T03:54:54.624Z,6.60
2023-04-13T03:57:22.776Z,6.70
2023-04-13T03:59:49.560Z,6.70
2023-04-13T04:02:16.581Z,6.70
2023-04-13T04:04:43.423Z,6.70
2023-04-13T04:07:11.061Z,6.70
2023-04-13T04:09:37.833Z,6.70
2023-04-13T04:12:05.152Z,6.70
2023-04-13T04:14:31.908Z,6.70
2023-04-13T04:16:58.593Z,6.70
2023-04-13T04:19:25.285Z,6.80
2023-04-13T04:21:52.999Z,6.80
2023-04-13T04:24:23.477Z,6.80
2023-04-13T04:26:50.768Z,6.90
2023-04-13T04:29:21.934Z,6.90
2023-04-13T04:31:53.750Z,6.90
2023-04-13T04:34:20.860Z,6.90
2023-04-13T04:36:52.031Z,6.90
2023-04-13T04:39:23.527Z,7.00
2023-04-13T04:41:54.333Z,6.90
2023-04-13T04:44:25.076Z,6.90
2023-04-13T04:46:52.571Z,7.00
2023-04-13T04:49:21.613Z,7.00
2023-04-13T04:51:49.225Z,7.10
2023-04-13T04:54:17.132Z,7.10
2023-04-13T04:56:44.577Z,7.10
2023-04-13T04:59:11.607Z,7.10
2023-04-13T05:01:38.729Z,7.20
2023-04-13T05:04:06.220Z,7.20
2023-04-13T05:06:35.794Z,7.20
2023-04-13T05:09:06.795Z,7.30
2023-04-13T05:11:33.882Z,7.20
2023-04-13T05:14:00.823Z,7.20
2023-04-13T05:16:30.530Z,7.30
2023-04-13T05:18:57.923Z,7.30
2023-04-13T05:23:53.974Z,7.20
2023-04-13T05:26:20.789Z,7.20
2023-04-13T05:28:47.595Z,7.20
2023-04-13T05:31:15.710Z,7.30
2023-04-13T05:33:42.524Z,7.20
2023-04-13T05:36:09.824Z,7.20
2023-04-13T05:38:36.558Z,7.20
2023-04-13T05:41:03.495Z,7.20
2023-04-13T05:43:30.625Z,7.20
2023-04-13T05:45:57.289Z,7.20
2023-04-13T05:48:24.580Z,7.20
2023-04-13T05:53:18.942Z,7.20
2023-04-13T05:55:48.030Z,7.20
2023-04-13T05:58:15.103Z,7.20
2023-04-13T06:00:43.101Z,7.20
2023-04-13T06:03:11.052Z,7.30
2023-04-13T06:05:38.884Z,7.40
2023-04-13T06:08:05.707Z,7.50
2023-04-13T06:10:32.497Z,7.70
2023-04-13T06:12:59.384Z,7.80
2023-04-13T06:15:26.180Z,7.80
2023-04-13T06:17:55.637Z,7.70
2023-04-13T06:20:22.605Z,7.60
2023-04-13T06:22:49.819Z,7.50
2023-04-13T06:25:16.778Z,7.50
2023-04-13T06:27:44.223Z,7.50
2023-04-13T06:30:12.075Z,7.40
2023-04-13T06:32:39.064Z,7.40
2023-04-13T06:35:06.373Z,7.40
2023-04-13T06:37:35.461Z,7.30
2023-04-13T06:40:15.788Z,7.30
2023-04-13T06:42:42.934Z,7.20
2023-04-13T06:45:11.247Z,7.20
2023-04-13T06:47:42.184Z,7.20
2023-04-13T06:50:10.983Z,7.20
2023-04-13T06:52:37.934Z,7.10
2023-04-13T06:55:05.053Z,7.10
2023-04-13T06:59:59.402Z,7.10
2023-04-13T07:02:27.218Z,7.20
2023-04-13T07:04:54.358Z,7.40
2023-04-13T07:07:21.354Z,7.50
2023-04-13T07:09:48.077Z,7.70
2023-04-13T07:12:14.955Z,8.10
2023-04-13T07:14:42.003Z,8.40
2023-04-13T07:17:10.672Z,8.40
2023-04-13T07:19:47.801Z,8.50
2023-04-13T07:22:14.782Z,8.50
2023-04-13T07:24:41.669Z,8.60
2023-04-13T07:27:08.529Z,8.80
2023-04-13T07:29:35.324Z,9.00
2023-04-13T07:32:03.536Z,9.20
2023-04-13T07:34:30.858Z,9.20
2023-04-13T07:36:57.550Z,8.90
2023-04-13T07:39:24.471Z,8.60
2023-04-13T07:41:51.227Z,8.50
2023-04-13T07:44:18.070Z,8.40
2023-04-13T07:46:44.861Z,8.40
2023-04-13T07:49:11.659Z,8.40
2023-04-13T07:51:38.424Z,8.50
2023-04-13T07:56:32.586Z,8.70
2023-04-13T07:58:59.484Z,8.60
2023-04-13T08:01:26.396Z,8.70
2023-04-13T08:03:53.459Z,8.80
2023-04-13T08:06:23.418Z,8.80
2023-04-13T08:08:50.469Z,8.80
2023-04-13T08:11:17.333Z,9.30
2023-04-13T08:13:44.064Z,9.40
2023-04-13T08:16:11.475Z,9.70
2023-04-13T08:18:38.456Z,9.70
2023-04-13T08:21:11.031Z,10.00
2023-04-13T08:23:43.969Z,10.10
2023-04-13T08:26:18.926Z,10.30
2023-04-13T08:28:49.913Z,10.40
2023-04-13T08:31:17.214Z,10.40
2023-04-13T08:33:44.039Z,10.50
2023-04-13T08:38:38.326Z,10.70
2023-04-13T08:41:05.693Z,10.90
2023-04-13T08:43:36.005Z,11.00
2023-04-13T08:46:06.535Z,10.70
2023-04-13T08:48:50.061Z,10.60
2023-04-13T08:51:22.167Z,10.50
2023-04-13T08:53:49.902Z,10.40
2023-04-13T08:56:17.299Z,10.30
2023-04-13T08:58:46.698Z,10.20
2023-04-13T09:01:15.475Z,10.40
2023-04-13T09:03:53.960Z,10.60
2023-04-13T09:06:33.170Z,10.90
2023-04-13T09:09:03.449Z,11.00
2023-04-13T09:13:57.901Z,10.60
2023-04-13T09:16:25.014Z,10.80
2023-04-13T09:18:53.736Z,10.80
2023-04-13T09:21:20.547Z,10.70
2023-04-13T09:23:59.860Z,10.90
2023-04-13T09:26:27.172Z,10.80
2023-04-13T09:28:58.139Z,10.80
2023-04-13T09:33:53.301Z,11.40
2023-04-13T09:36:21.718Z,11.80
2023-04-13T09:38:53.964Z,11.90
2023-04-13T09:41:33.967Z,11.60
2023-04-13T09:44:14.934Z,11.30
2023-04-13T09:51:41.135Z,11.10
2023-04-13T09:54:08.231Z,11.10
2023-04-13T09:56:46.892Z,11.30
2023-04-13T09:59:14.323Z,11.50
2023-04-13T10:01:41.691Z,11.50
2023-04-13T10:04:09.894Z,11.20
2023-04-13T10:06:41.041Z,11.10
2023-04-13T10:11:45.239Z,10.90
2023-04-13T10:14:21.951Z,10.80
2023-04-13T10:17:30.554Z,10.70
2023-04-13T10:20:01.785Z,10.70
2023-04-13T10:22:30.368Z,10.60
2023-04-13T10:24:57.303Z,10.40
2023-04-13T10:27:27.786Z,10.30
2023-04-13T10:32:28.604Z,10.30
2023-04-13T10:34:55.951Z,10.40
2023-04-13T10:37:31.456Z,10.20
2023-04-13T10:42:52.329Z,10.00
2023-04-13T10:45:26.121Z,9.80
2023-04-13T10:47:58.640Z,9.80
2023-04-13T10:50:29.134Z,9.80
2023-04-13T10:53:05.536Z,9.80
2023-04-13T10:55:33.539Z,9.90
2023-04-13T10:58:02.155Z,9.90
2023-04-13T11:00:44.698Z,10.10
2023-04-13T11:03:17.207Z,10.40
2023-04-13T11:05:56.574Z,10.80
2023-04-13T11:08:24.316Z,10.90
2023-04-13T11:10:55.866Z,11.20
2023-04-13T11:13:29.057Z,11.60
2023-04-13T11:16:06.672Z,11.80
2023-04-13T11:23:34.790Z,12.00
2023-04-13T11:28:41.009Z,12.00
2023-04-13T11:31:08.262Z,11.70
2023-04-13T11:36:08.048Z,11.40
2023-04-13T11:38:34.958Z,11.20
2023-04-13T11:46:15.348Z,11.20
2023-04-13T11:48:43.429Z,11.10
2023-04-13T11:53:39.471Z,10.90
2023-04-13T11:56:07.272Z,10.80
2023-04-13T12:01:14.408Z,10.80
2023-04-13T12:06:34.160Z,10.70
2023-04-13T12:09:11.485Z,10.70
2023-04-13T12:11:44.736Z,10.70
2023-04-13T12:19:24.627Z,11.20
2023-04-13T12:21:56.745Z,11.70
2023-04-13T12:24:37.891Z,12.00
2023-04-13T12:29:41.544Z,12.00
2023-04-13T12:32:14.283Z,12.20
2023-04-13T12:34:42.180Z,12.30
2023-04-13T12:37:10.177Z,12.30
2023-04-13T12:39:37.213Z,12.40
2023-04-13T12:42:04.071Z,12.40
2023-04-13T12:47:01.904Z,12.10
2023-04-13T12:49:29.086Z,11.80
2023-04-13T12:51:55.957Z,11.70
2023-04-13T12:54:22.743Z,11.60
2023-04-13T12:56:49.408Z,11.50
2023-04-13T12:59:16.786Z,11.30
2023-04-13T13:01:43.604Z,11.20
2023-04-13T13:04:10.558Z,11.20
2023-04-13T13:09:05.774Z,11.50
2023-04-13T13:11:32.489Z,11.60
2023-04-13T13:13:59.201Z,11.70
2023-04-13T13:16:25.984Z,11.80
2023-04-13T13:18:52.749Z,11.90
2023-04-13T13:21:19.986Z,12.40
2023-04-13T13:26:24.102Z,13.20
2023-04-13T13:28:52.932Z,13.30
2023-04-13T13:31:20.015Z,13.40
2023-04-13T13:33:47.146Z,13.60
2023-04-13T13:36:14.457Z,13.40
2023-04-13T13:38:44.875Z,13.10
2023-04-13T13:41:11.664Z,12.80
2023-04-13T13:43:39.033Z,12.80
2023-04-13T13:46:06.662Z,13.00
2023-04-13T13:48:33.477Z,13.10
2023-04-13T13:51:01.002Z,13.10
2023-04-13T13:53:27.886Z,12.80
2023-04-13T13:55:55.473Z,12.50
2023-04-13T13:58:22.402Z,12.60
2023-04-13T14:03:17.442Z,12.50
2023-04-13T14:05:44.400Z,12.40
2023-04-13T14:08:11.226Z,12.30
2023-04-13T14:10:38.095Z,12.30
2023-04-13T14:13:04.964Z,12.30
2023-04-13T14:15:31.781Z,12.30
2023-04-13T14:18:10.014Z,12.30
2023-04-13T14:20:39.023Z,12.40
2023-04-13T14:23:06.324Z,12.60
2023-04-13T14:25:33.117Z,12.90
2023-04-13T14:28:00.146Z,12.80
2023-04-13T14:30:28.116Z,12.70
2023-04-13T14:32:56.273Z,12.80
2023-04-13T14:37:50.769Z,13.10
2023-04-13T14:45:17.875Z,12.40
2023-04-13T14:47:44.849Z,12.10
2023-04-13T14:50:12.393Z,12.10
2023-04-13T14:55:06.897Z,12.00
2023-04-13T14:57:33.721Z,11.90
2023-04-13T15:00:00.559Z,11.70
2023-04-13T15:02:28.485Z,11.60
2023-04-13T15:04:55.907Z,11.50
2023-04-13T15:07:29.925Z,11.20
2023-04-13T15:09:59.013Z,11.20
2023-04-13T15:12:25.960Z,11.10
2023-04-13T15:14:52.875Z,11.10
2023-04-13T15:17:21.019Z,11.10
2023-04-13T15:19:47.913Z,11.10
2023-04-13T15:22:14.576Z,11.20
2023-04-13T15:24:41.314Z,11.30
2023-04-13T15:27:08.061Z,11.30
2023-04-13T15:29:34.838Z,11.50
2023-04-13T15:32:01.666Z,11.90
2023-04-13T15:34:28.553Z,12.10
2023-04-13T15:36:56.998Z,12.10
2023-04-13T15:39:23.874Z,12.40
2023-04-13T15:41:52.659Z,12.60
2023-04-13T15:44:19.486Z,12.50
2023-04-13T15:46:48.028Z,12.50
2023-04-13T15:49:14.930Z,12.30
2023-04-13T15:51:41.710Z,12.20
2023-04-13T15:54:08.422Z,12.20
2023-04-13T15:56:35.537Z,12.50
2023-04-13T15:59:02.471Z,12.80
2023-04-13T16:01:47.336Z,13.00
2023-04-13T16:04:14.614Z,13.00
2023-04-13T16:06:42.506Z,12.80
2023-04-13T16:09:12.538Z,12.80
2023-04-13T16:11:39.287Z,12.90
2023-04-13T16:14:09.528Z,13.00
2023-04-13T16:16:46.594Z,13.10
2023-04-13T16:19:18.090Z,13.10
2023-04-13T16:21:51.058Z,13.00
2023-04-13T16:24:20.097Z,12.80
2023-04-13T16:26:46.887Z,12.60
2023-04-13T16:29:13.877Z,12.40
2023-04-13T16:31:44.730Z,12.40
2023-04-13T16:34:25.051Z,12.60
2023-04-13T16:36:53.100Z,12.60
2023-04-13T16:39:21.016Z,12.50
2023-04-13T16:41:47.731Z,12.50
2023-04-13T16:44:14.455Z,12.60
2023-04-13T16:46:41.403Z,12.70
2023-04-13T16:49:08.194Z,12.70
2023-04-13T16:51:34.918Z,12.80
2023-04-13T16:54:03.968Z,12.80
2023-04-13T16:56:30.780Z,12.70
2023-04-13T16:58:57.794Z,12.70
2023-04-13T17:01:28.990Z,12.70
2023-04-13T17:03:56.106Z,12.70
2023-04-13T17:06:23.080Z,12.70
2023-04-13T17:08:49.871Z,12.60
2023-04-13T17:11:16.584Z,12.60
2023-04-13T17:13:43.414Z,12.70
2023-04-13T17:16:10.384Z,12.60
2023-04-13T17:18:37.240Z,12.50
2023-04-13T17:21:04.089Z,12.40
2023-04-13T17:23:31.380Z,12.30
2023-04-13T17:25:58.210Z,12.20
2023-04-13T17:28:25.128Z,12.20
2023-04-13T17:30:52.000Z,12.10
2023-04-13T17:33:18.784Z,12.00
2023-04-13T17:35:45.591Z,12.00
2023-04-13T17:38:12.368Z,11.90
2023-04-13T17:40:39.088Z,11.80
2023-04-13T17:43:08.243Z,11.80
2023-04-13T17:45:35.234Z,11.70
2023-04-13T17:48:02.526Z,11.70
2023-04-13T17:50:31.765Z,11.70
2023-04-13T17:53:00.352Z,11.60
2023-04-13T17:55:27.334Z,11.60
2023-04-13T17:57:54.077Z,11.50
2023-04-13T18:00:20.966Z,11.40
2023-04-13T18:02:51.855Z,11.30
2023-04-13T18:05:18.772Z,11.20
2023-04-13T18:07:45.618Z,11.10
2023-04-13T18:10:12.378Z,11.00
2023-04-13T18:12:40.566Z,10.90
2023-04-13T18:15:10.728Z,10.90
2023-04-13T18:17:38.434Z,10.80
2023-04-13T18:20:05.983Z,10.60
2023-04-13T18:22:32.885Z,10.50
2023-04-13T18:27:27.717Z,10.40
2023-04-13T18:29:55.689Z,10.20
2023-04-13T18:32:23.542Z,10.00
2023-04-13T18:34:50.366Z,9.70
2023-04-13T18:37:17.244Z,9.50
2023-04-13T18:39:44.928Z,9.30
2023-04-13T18:42:11.797Z,9.20
2023-04-13T18:44:38.631Z,9.00
2023-04-13T18:47:05.611Z,8.70
2023-04-13T18:49:32.596Z,8.50
2023-04-13T18:51:59.427Z,8.50
2023-04-13T18:54:26.266Z,8.40
2023-04-13T18:56:52.999Z,8.30
2023-04-13T18:59:19.841Z,8.40
2023-04-13T19:01:47.715Z,8.30
2023-04-13T19:04:14.817Z,8.20
2023-04-13T19:06:41.824Z,8.10
2023-04-13T19:09:08.721Z,7.90
2023-04-13T19:11:50.254Z,7.80
2023-04-13T19:14:17.013Z,7.80
2023-04-13T19:19:14.662Z,7.70
2023-04-13T19:21:41.448Z,7.50
2023-04-13T19:24:08.683Z,7.40
2023-04-13T19:26:35.476Z,7.40
2023-04-13T19:29:03.992Z,7.30
2023-04-13T19:31:34.592Z,7.30
2023-04-13T19:34:01.799Z,7.30
2023-04-13T19:36:28.834Z,7.30
2023-04-13T19:38:55.600Z,7.40
2023-04-13T19:41:22.346Z,7.30
2023-04-13T19:43:51.029Z,7.10
2023-04-13T19:46:17.811Z,6.80
2023-04-13T19:51:27.325Z,6.80
2023-04-13T19:53:55.090Z,6.80
2023-04-13T19:56:25.429Z,6.80
2023-04-13T19:58:52.229Z,6.80
2023-04-13T20:01:21.160Z,6.70
2023-04-13T20:06:16.065Z,6.70
2023-04-13T20:08:44.527Z,6.70
2023-04-13T20:11:12.050Z,6.70
2023-04-13T20:16:06.942Z,6.40
2023-04-13T20:18:33.996Z,6.20
2023-04-13T20:23:29.833Z,6.20
2023-04-13T20:25:56.628Z,6.30
2023-04-13T20:28:23.770Z,6.30
2023-04-13T20:33:17.675Z,6.10
2023-04-13T20:35:44.448Z,6.10
2023-04-13T20:38:13.866Z,6.10
2023-04-13T20:40:41.807Z,6.10
2023-04-13T20:43:09.653Z,6.10
2023-04-13T20:48:48.519Z,6.10
2023-04-13T20:53:20.464Z,6.10
2023-04-13T20:55:48.879Z,6.20
2023-04-13T20:58:16.101Z,6.40
2023-04-13T21:00:43.682Z,6.50
2023-04-13T21:05:37.941Z,6.50
2023-04-13T21:08:04.776Z,6.50
2023-04-13T21:10:31.624Z,6.40
2023-04-13T21:15:26.256Z,6.20
2023-04-13T21:17:53.073Z,6.00
2023-04-13T21:20:19.971Z,5.80
2023-04-13T21:22:46.658Z,5.60
2023-04-13T21:25:13.510Z,5.50
2023-04-13T21:27:40.338Z,5.40
2023-04-13T21:30:07.704Z,5.40
2023-04-13T21:37:31.868Z,5.10
2023-04-13T21:39:58.621Z,5.00
2023-04-13T21:42:25.552Z,5.00
2023-04-13T21:52:13.884Z,5.10
2023-04-13T21:57:09.782Z,5.10
2023-04-13T22:02:03.832Z,5.00
2023-04-13T22:04:30.920Z,4.90
2023-04-13T22:06:57.811Z,4.90
2023-04-13T22:09:24.575Z,4.80
2023-04-13T22:16:47.738Z,4.50
2023-04-13T22:21:42.762Z,4.40
2023-04-13T22:24:09.562Z,4.40
2023-04-13T22:26:36.369Z,4.40
2023-04-13T22:29:03.307Z,4.30
2023-04-13T22:31:30.203Z,4.30
2023-04-13T22:33:57.109Z,4.20
2023-04-13T22:36:24.047Z,4.20
2023-04-13T22:43:45.210Z,4.20
2023-04-13T22:46:12.203Z,4.10
2023-04-13T22:51:06.567Z,3.90
2023-04-13T22:53:33.289Z,3.80
2023-04-13T22:58:27.983Z,3.80
2023-04-13T23:00:54.944Z,3.90
2023-04-13T23:03:22.137Z,3.80
2023-04-13T23:08:16.096Z,3.90
2023-04-13T23:10:42.841Z,4.00
2023-04-13T23:13:09.556Z,4.10
2023-04-13T23:15:36.321Z,4.00
2023-04-13T23:20:30.521Z,3.80
2023-04-13T23:22:57.330Z,3.90
2023-04-13T23:25:24.270Z,4.00
2023-04-13T23:27:50.998Z,4.00
2023-04-13T23:32:45.005Z,3.90
2023-04-13T23:35:11.869Z,3.90
2023-04-13T23:37:40.567Z,3.90
2023-04-13T23:40:08.060Z,3.90
2023-04-13T23:42:35.012Z,3.80
2023-04-13T23:45:01.791Z,3.70
2023-04-13T23:47:28.806Z,3.70
2023-04-13T23:49:55.802Z,3.60
2023-04-13T23:52:22.595Z,3.60
2023-04-13T23:54:49.312Z,3.70
2023-04-13T23:59:43.458Z,3.90
